Mequon, WI (53097)

1:04 PM CDT on April 27, 2017 (GMT -0500)
Concordia University Wisconsin | | Change Station

Elev 692 ft 43.25 °N, 87.92 °W | Updated 15 seconds ago

Overcast
Overcast
40.8 °F
Feels Like 36 °F
N
8.0
Wind Variable Wind from SSW
Gusts 23.0 mph

Today
High -- | Low -- °F
--% Chance of Precip.
Yesterday
High -- | Low -- °F
Precip. -- in
Pressure 29.53 in
Visibility 10.0 miles
Clouds Mostly Cloudy 1800 ft
Mostly Cloudy 2200 ft
Overcast 6000 ft
Windchill 36 °F
Dew Point 36 °F
Humidity 83%
Rainfall 0.83 in
Snow Depth Not available.
5:50 AM 7:49 PM
New Moon, 2% visible
METAR KMWC 271745Z 26016G22KT 10SM DZ BKN018 BKN022 OVC060 04/01 A2953
Pressure 29.53 in
Visibility 10.0 miles
Clouds Mostly Cloudy 1800 ft
Mostly Cloudy 2200 ft
Overcast 6000 ft
Windchill 36 °F
Dew Point 36 °F
Humidity 83%
Rainfall 0.83 in
Snow Depth Not available.
5:50 AM 7:49 PM
New Moon, 2% visible
METAR KMWC 271745Z 26016G22KT 10SM DZ BKN018 BKN022 OVC060 04/01 A2953

Get Severe Weather Alerts

Thanks for signing up!

Be on the lookout for a verification email in your inbox.

You'll start receiving the daily forecast at 8 AM.

×

10-Day Weather Forecast

Almanac

Astronomy

Apr. 27, 2017 Rise Set
Actual Time
Civil Twilight
Nautical Twilight
Astronomical Twilight
Moon
Length of Visible Light
Length of Day
Tomorrow will be .
, % of the Moon is Illuminated

Today's Extremes

State Highs State Lows

Community

WunderPhotos

WunderBlog® & News

Nearby

Air Quality

  Air Quality AQ Index Pollutant
Not available.

Snow Depth

Station Depth Elevation

Earthquake Activity

City Distance Mag. Time & Date
Minimum magnitude displayed is 2.5.

Coastal Water Temperatures

Place Temperature

Stations

Nearby Weather Stations

Station Location Temp. Windchill Dew Point Humidity Wind Precip. Elev Updated Type
                   

Watches & Warnings

There are currently no watches in effect.